sensor_id;sensor_type;location;lat;lon;timestamp;pressure;altitude;pressure_sealevel;temperature;humidity
36386;BME280;24125;47.482;8.770;2023-03-04T00:02:32;96652.06;;;4.76;69.90
36386;BME280;24125;47.482;8.770;2023-03-04T00:05:07;96657.13;;;4.72;69.87
36386;BME280;24125;47.482;8.770;2023-03-04T00:07:40;96652.94;;;4.66;70.09
36386;BME280;24125;47.482;8.770;2023-03-04T00:10:12;96657.19;;;4.62;70.04
36386;BME280;24125;47.482;8.770;2023-03-04T00:12:45;96656.44;;;4.57;69.92
36386;BME280;24125;47.482;8.770;2023-03-04T00:15:18;96666.50;;;4.54;70.00
36386;BME280;24125;47.482;8.770;2023-03-04T00:17:50;96660.47;;;4.49;69.95
36386;BME280;24125;47.482;8.770;2023-03-04T00:20:25;96662.06;;;4.45;69.83
36386;BME280;24125;47.482;8.770;2023-03-04T00:22:57;96665.53;;;4.40;69.95
36386;BME280;24125;47.482;8.770;2023-03-04T00:25:30;96660.53;;;4.34;69.86
36386;BME280;24125;47.482;8.770;2023-03-04T00:28:04;96670.63;;;4.32;69.68
36386;BME280;24125;47.482;8.770;2023-03-04T00:30:36;96667.19;;;4.26;69.80
36386;BME280;24125;47.482;8.770;2023-03-04T00:33:09;96663.53;;;4.22;69.39
36386;BME280;24125;47.482;8.770;2023-03-04T00:35:43;96670.41;;;4.18;69.75
36386;BME280;24125;47.482;8.770;2023-03-04T00:38:16;96664.09;;;4.14;69.75
36386;BME280;24125;47.482;8.770;2023-03-04T00:40:49;96658.81;;;4.09;69.65
36386;BME280;24125;47.482;8.770;2023-03-04T00:43:21;96666.53;;;4.05;69.90
36386;BME280;24125;47.482;8.770;2023-03-04T00:45:54;96663.34;;;4.03;69.92
36386;BME280;24125;47.482;8.770;2023-03-04T00:48:27;96661.50;;;3.99;69.99
36386;BME280;24125;47.482;8.770;2023-03-04T00:51:02;96667.63;;;3.94;69.92
36386;BME280;24125;47.482;8.770;2023-03-04T00:53:34;96671.31;;;3.93;70.02
36386;BME280;24125;47.482;8.770;2023-03-04T00:56:07;96666.06;;;3.88;69.93
36386;BME280;24125;47.482;8.770;2023-03-04T00:58:40;96665.53;;;3.86;69.96
36386;BME280;24125;47.482;8.770;2023-03-04T01:01:12;96662.63;;;3.83;70.20
36386;BME280;24125;47.482;8.770;2023-03-04T01:03:45;96670.03;;;3.80;69.87
36386;BME280;24125;47.482;8.770;2023-03-04T01:06:20;96661.59;;;3.78;69.99
36386;BME280;24125;47.482;8.770;2023-03-04T01:08:52;96658.44;;;3.76;70.00
36386;BME280;24125;47.482;8.770;2023-03-04T01:11:25;96660.31;;;3.71;70.15
36386;BME280;24125;47.482;8.770;2023-03-04T01:13:58;96655.28;;;3.69;70.17
36386;BME280;24125;47.482;8.770;2023-03-04T01:16:30;96653.97;;;3.67;70.20
36386;BME280;24125;47.482;8.770;2023-03-04T01:19:03;96651.34;;;3.67;70.50
36386;BME280;24125;47.482;8.770;2023-03-04T01:21:37;96650.81;;;3.65;70.44
36386;BME280;24125;47.482;8.770;2023-03-04T01:24:10;96643.44;;;3.62;70.18
36386;BME280;24125;47.482;8.770;2023-03-04T01:26:43;96642.91;;;3.60;70.43
36386;BME280;24125;47.482;8.770;2023-03-04T01:29:15;96645.81;;;3.58;70.24
36386;BME280;24125;47.482;8.770;2023-03-04T01:31:48;96642.66;;;3.56;70.29
36386;BME280;24125;47.482;8.770;2023-03-04T01:34:21;96650.84;;;3.55;70.07
36386;BME280;24125;47.482;8.770;2023-03-04T01:36:55;96646.91;;;3.52;70.15
36386;BME280;24125;47.482;8.770;2023-03-04T01:39:28;96649.00;;;3.50;70.27
36386;BME280;24125;47.482;8.770;2023-03-04T01:42:01;96649.53;;;3.47;70.16
36386;BME280;24125;47.482;8.770;2023-03-04T01:44:33;96648.25;;;3.45;70.43
36386;BME280;24125;47.482;8.770;2023-03-04T01:47:07;96641.66;;;3.42;70.29
36386;BME280;24125;47.482;8.770;2023-03-04T01:49:40;96636.88;;;3.39;70.17
36386;BME280;24125;47.482;8.770;2023-03-04T01:52:14;96642.16;;;3.39;70.38
36386;BME280;24125;47.482;8.770;2023-03-04T01:54:47;96640.09;;;3.36;70.44
36386;BME280;24125;47.482;8.770;2023-03-04T01:57:20;96639.56;;;3.34;70.49
36386;BME280;24125;47.482;8.770;2023-03-04T02:00:10;96641.41;;;3.33;70.46
36386;BME280;24125;47.482;8.770;2023-03-04T02:02:46;96635.59;;;3.31;70.59
36386;BME280;24125;47.482;8.770;2023-03-04T02:05:20;96635.06;;;3.29;70.40
36386;BME280;24125;47.482;8.770;2023-03-04T02:07:54;96632.41;;;3.29;70.57
36386;BME280;24125;47.482;8.770;2023-03-04T02:10:28;96631.91;;;3.27;70.42
36386;BME280;24125;47.482;8.770;2023-03-04T02:13:01;96638.00;;;3.28;70.53
36386;BME280;24125;47.482;8.770;2023-03-04T02:15:35;96629.81;;;3.24;70.37
36386;BME280;24125;47.482;8.770;2023-03-04T02:18:11;96628.22;;;3.23;70.35
36386;BME280;24125;47.482;8.770;2023-03-04T02:20:48;96627.69;;;3.21;70.32
36386;BME280;24125;47.482;8.770;2023-03-04T02:23:27;96626.91;;;3.21;70.43
36386;BME280;24125;47.482;8.770;2023-03-04T02:26:08;96625.34;;;3.20;70.49
36386;BME280;24125;47.482;8.770;2023-03-04T02:28:41;96618.22;;;3.15;70.48
36386;BME280;24125;47.482;8.770;2023-03-04T02:31:19;96613.19;;;3.14;70.63
36386;BME280;24125;47.482;8.770;2023-03-04T02:33:54;96619.25;;;3.14;70.48
36386;BME280;24125;47.482;8.770;2023-03-04T02:36:27;96612.41;;;3.13;70.70
36386;BME280;24125;47.482;8.770;2023-03-04T02:39:01;96611.09;;;3.11;70.53
36386;BME280;24125;47.482;8.770;2023-03-04T02:41:36;96608.72;;;3.09;71.00
36386;BME280;24125;47.482;8.770;2023-03-04T02:44:14;96609.78;;;3.08;70.91
36386;BME280;24125;47.482;8.770;2023-03-04T02:46:48;96619.28;;;3.09;70.77
36386;BME280;24125;47.482;8.770;2023-03-04T02:49:21;96619.53;;;3.08;70.81
36386;BME280;24125;47.482;8.770;2023-03-04T02:51:57;96619.81;;;3.06;70.84
36386;BME280;24125;47.482;8.770;2023-03-04T02:54:30;96623.50;;;3.05;70.70
36386;BME280;24125;47.482;8.770;2023-03-04T02:57:05;96616.63;;;3.04;70.81
36386;BME280;24125;47.482;8.770;2023-03-04T02:59:38;96617.97;;;3.01;70.52
36386;BME280;24125;47.482;8.770;2023-03-04T03:02:11;96623.50;;;3.00;70.71
36386;BME280;24125;47.482;8.770;2023-03-04T03:04:44;96618.25;;;3.00;70.48
36386;BME280;24125;47.482;8.770;2023-03-04T03:07:17;96621.41;;;2.97;70.59
36386;BME280;24125;47.482;8.770;2023-03-04T03:09:50;96616.13;;;2.97;70.57
36386;BME280;24125;47.482;8.770;2023-03-04T03:12:24;96619.03;;;2.95;70.71
36386;BME280;24125;47.482;8.770;2023-03-04T03:14:56;96610.59;;;2.93;70.98
36386;BME280;24125;47.482;8.770;2023-03-04T03:17:29;96615.09;;;2.93;70.79
36386;BME280;24125;47.482;8.770;2023-03-04T03:20:02;96618.78;;;2.92;71.00
36386;BME280;24125;47.482;8.770;2023-03-04T03:22:35;96610.88;;;2.92;70.80
36386;BME280;24125;47.482;8.770;2023-03-04T03:25:08;96611.13;;;2.90;70.79
36386;BME280;24125;47.482;8.770;2023-03-04T03:27:43;96604.25;;;2.89;71.36
36386;BME280;24125;47.482;8.770;2023-03-04T03:30:17;96607.69;;;2.90;71.16
36386;BME280;24125;47.482;8.770;2023-03-04T03:32:49;96606.13;;;2.89;71.06
36386;BME280;24125;47.482;8.770;2023-03-04T03:35:22;96609.28;;;2.91;70.95
36386;BME280;24125;47.482;8.770;2023-03-04T03:37:55;96611.38;;;2.89;71.17
36386;BME280;24125;47.482;8.770;2023-03-04T03:40:28;96605.84;;;2.90;71.08
36386;BME280;24125;47.482;8.770;2023-03-04T03:43:02;96610.34;;;2.90;71.39
36386;BME280;24125;47.482;8.770;2023-03-04T03:45:36;96605.06;;;2.90;71.38
36386;BME280;24125;47.482;8.770;2023-03-04T03:48:09;96604.00;;;2.91;71.57
36386;BME280;24125;47.482;8.770;2023-03-04T03:50:41;96606.91;;;2.89;71.52
36386;BME280;24125;47.482;8.770;2023-03-04T03:53:14;96599.78;;;2.90;71.52
36386;BME280;24125;47.482;8.770;2023-03-04T03:55:47;96607.44;;;2.91;71.25
36386;BME280;24125;47.482;8.770;2023-03-04T03:58:21;96602.16;;;2.91;71.63
36386;BME280;24125;47.482;8.770;2023-03-04T04:00:54;96602.16;;;2.91;71.49
36386;BME280;24125;47.482;8.770;2023-03-04T04:03:28;96604.78;;;2.91;71.44
36386;BME280;24125;47.482;8.770;2023-03-04T04:06:01;96610.06;;;2.91;71.45
36386;BME280;24125;47.482;8.770;2023-03-04T04:08:34;96610.06;;;2.91;71.80
36386;BME280;24125;47.482;8.770;2023-03-04T04:11:07;96601.63;;;2.89;71.34
36386;BME280;24125;47.482;8.770;2023-03-04T04:13:42;96606.91;;;2.89;71.35
36386;BME280;24125;47.482;8.770;2023-03-04T04:16:14;96602.41;;;2.90;71.38
36386;BME280;24125;47.482;8.770;2023-03-04T04:18:47;96603.47;;;2.89;71.34
36386;BME280;24125;47.482;8.770;2023-03-04T04:21:20;96610.59;;;2.88;71.17
36386;BME280;24125;47.482;8.770;2023-03-04T04:23:52;96607.16;;;2.88;71.37
36386;BME280;24125;47.482;8.770;2023-03-04T04:26:25;96612.44;;;2.88;71.16
36386;BME280;24125;47.482;8.770;2023-03-04T04:28:59;96610.06;;;2.86;71.33
36386;BME280;24125;47.482;8.770;2023-03-04T04:31:32;96611.16;;;2.85;71.18
36386;BME280;24125;47.482;8.770;2023-03-04T04:34:05;96616.16;;;2.82;70.94
36386;BME280;24125;47.482;8.770;2023-03-04T04:36:38;96614.03;;;2.84;71.07
36386;BME280;24125;47.482;8.770;2023-03-04T04:39:11;96621.41;;;2.82;70.96
36386;BME280;24125;47.482;8.770;2023-03-04T04:41:44;96612.19;;;2.79;71.04
36386;BME280;24125;47.482;8.770;2023-03-04T04:44:18;96619.28;;;2.79;71.09
36386;BME280;24125;47.482;8.770;2023-03-04T04:46:51;96619.06;;;2.75;71.14
36386;BME280;24125;47.482;8.770;2023-03-04T04:49:24;96622.47;;;2.76;71.05
36386;BME280;24125;47.482;8.770;2023-03-04T04:51:57;96625.38;;;2.74;70.93
36386;BME280;24125;47.482;8.770;2023-03-04T04:54:30;96614.56;;;2.71;71.05
36386;BME280;24125;47.482;8.770;2023-03-04T04:57:03;96619.03;;;2.70;70.87
36386;BME280;24125;47.482;8.770;2023-03-04T04:59:37;96628.78;;;2.70;70.94
36386;BME280;24125;47.482;8.770;2023-03-04T05:02:09;96619.28;;;2.69;70.66
36386;BME280;24125;47.482;8.770;2023-03-04T05:04:42;96622.72;;;2.64;70.87
36386;BME280;24125;47.482;8.770;2023-03-04T05:07:15;96622.72;;;2.64;70.81
36386;BME280;24125;47.482;8.770;2023-03-04T05:09:47;96628.25;;;2.62;70.72
36386;BME280;24125;47.482;8.770;2023-03-04T05:12:20;96625.09;;;2.60;71.18
36386;BME280;24125;47.482;8.770;2023-03-04T05:14:54;96630.66;;;2.59;70.60
36386;BME280;24125;47.482;8.770;2023-03-04T05:17:27;96630.91;;;2.57;70.78
36386;BME280;24125;47.482;8.770;2023-03-04T05:20:00;96628.28;;;2.57;70.75
36386;BME280;24125;47.482;8.770;2023-03-04T05:22:34;96626.16;;;2.54;70.77
36386;BME280;24125;47.482;8.770;2023-03-04T05:25:07;96627.47;;;2.52;70.72
36386;BME280;24125;47.482;8.770;2023-03-04T05:27:40;96628.25;;;2.52;70.49
36386;BME280;24125;47.482;8.770;2023-03-04T05:30:15;96630.38;;;2.50;70.73
36386;BME280;24125;47.482;8.770;2023-03-04T05:32:48;96636.69;;;2.49;70.62
36386;BME280;24125;47.482;8.770;2023-03-04T05:35:20;96638.28;;;2.50;71.03
36386;BME280;24125;47.482;8.770;2023-03-04T05:37:53;96637.22;;;2.51;71.29
36386;BME280;24125;47.482;8.770;2023-03-04T05:40:26;96639.84;;;2.51;71.46
36386;BME280;24125;47.482;8.770;2023-03-04T05:42:59;96639.59;;;2.53;71.31
36386;BME280;24125;47.482;8.770;2023-03-04T05:45:33;96642.50;;;2.56;71.87
36386;BME280;24125;47.482;8.770;2023-03-04T05:48:06;96645.13;;;2.61;71.92
36386;BME280;24125;47.482;8.770;2023-03-04T05:50:39;96634.88;;;2.65;72.02
36386;BME280;24125;47.482;8.770;2023-03-04T05:53:12;96634.06;;;2.70;72.30
36386;BME280;24125;47.482;8.770;2023-03-04T05:55:45;96645.16;;;2.77;72.83
36386;BME280;24125;47.482;8.770;2023-03-04T05:58:18;96646.19;;;2.86;72.86
36386;BME280;24125;47.482;8.770;2023-03-04T06:00:52;96638.28;;;2.91;73.13
36386;BME280;24125;47.482;8.770;2023-03-04T06:03:25;96639.84;;;2.97;72.63
36386;BME280;24125;47.482;8.770;2023-03-04T06:05:58;96637.25;;;3.02;72.98
36386;BME280;24125;47.482;8.770;2023-03-04T06:08:31;96635.38;;;3.08;72.93
36386;BME280;24125;47.482;8.770;2023-03-04T06:11:04;96646.44;;;3.15;73.04
36386;BME280;24125;47.482;8.770;2023-03-04T06:13:37;96644.06;;;3.18;73.07
36386;BME280;24125;47.482;8.770;2023-03-04T06:16:11;96650.13;;;3.24;72.98
36386;BME280;24125;47.482;8.770;2023-03-04T06:18:44;96651.97;;;3.28;73.06
36386;BME280;24125;47.482;8.770;2023-03-04T06:21:17;96662.50;;;3.33;73.41
36386;BME280;24125;47.482;8.770;2023-03-04T06:23:50;96665.66;;;3.40;73.61
36386;BME280;24125;47.482;8.770;2023-03-04T06:26:22;96660.09;;;3.47;73.58
36386;BME280;24125;47.482;8.770;2023-03-04T06:28:55;96667.47;;;3.55;73.92
36386;BME280;24125;47.482;8.770;2023-03-04T06:31:29;96672.19;;;3.63;73.87
36386;BME280;24125;47.482;8.770;2023-03-04T06:34:02;96670.09;;;3.70;73.98
36386;BME280;24125;47.482;8.770;2023-03-04T06:36:35;96671.13;;;3.79;74.21
36386;BME280;24125;47.482;8.770;2023-03-04T06:39:07;96673.69;;;3.90;74.07
36386;BME280;24125;47.482;8.770;2023-03-04T06:41:40;96674.22;;;3.97;74.41
36386;BME280;24125;47.482;8.770;2023-03-04T06:44:13;96677.59;;;4.07;74.45
36386;BME280;24125;47.482;8.770;2023-03-04T06:46:47;96677.53;;;4.17;74.54
36386;BME280;24125;47.482;8.770;2023-03-04T06:49:20;96685.44;;;4.28;74.52
36386;BME280;24125;47.482;8.770;2023-03-04T06:51:53;96687.75;;;4.39;74.63
36386;BME280;24125;47.482;8.770;2023-03-04T06:54:25;96690.63;;;4.48;74.62
36386;BME280;24125;47.482;8.770;2023-03-04T06:56:58;96691.63;;;4.57;74.59
36386;BME280;24125;47.482;8.770;2023-03-04T06:59:31;96697.34;;;4.69;74.49
36386;BME280;24125;47.482;8.770;2023-03-04T07:02:05;96696.50;;;4.79;74.51
36386;BME280;24125;47.482;8.770;2023-03-04T07:04:38;96697.47;;;4.88;74.68
36386;BME280;24125;47.482;8.770;2023-03-04T07:07:11;96701.13;;;4.97;74.85
36386;BME280;24125;47.482;8.770;2023-03-04T07:09:44;96691.53;;;5.06;74.55
36386;BME280;24125;47.482;8.770;2023-03-04T07:12:16;96709.72;;;5.18;74.76
36386;BME280;24125;47.482;8.770;2023-03-04T07:14:49;96703.03;;;5.25;74.89
36386;BME280;24125;47.482;8.770;2023-03-04T07:17:23;96700.56;;;5.34;74.89
36386;BME280;24125;47.482;8.770;2023-03-04T07:19:56;96702.34;;;5.44;74.61
36386;BME280;24125;47.482;8.770;2023-03-04T07:22:29;96698.28;;;5.51;74.80
36386;BME280;24125;47.482;8.770;2023-03-04T07:25:02;96704.03;;;5.58;75.05
36386;BME280;24125;47.482;8.770;2023-03-04T07:27:35;96707.66;;;5.67;74.51
36386;BME280;24125;47.482;8.770;2023-03-04T07:30:09;96707.03;;;5.76;74.71
36386;BME280;24125;47.482;8.770;2023-03-04T07:32:43;96711.44;;;5.85;74.48
36386;BME280;24125;47.482;8.770;2023-03-04T07:35:16;96708.47;;;5.92;74.33
36386;BME280;24125;47.482;8.770;2023-03-04T07:37:49;96704.13;;;6.01;74.50
36386;BME280;24125;47.482;8.770;2023-03-04T07:40:22;96713.03;;;6.10;74.50
36386;BME280;24125;47.482;8.770;2023-03-04T07:42:55;96713.22;;;6.19;74.99
36386;BME280;24125;47.482;8.770;2023-03-04T07:45:28;96718.94;;;6.26;75.00
36386;BME280;24125;47.482;8.770;2023-03-04T07:48:02;96716.47;;;6.34;74.56
36386;BME280;24125;47.482;8.770;2023-03-04T07:50:35;96722.44;;;6.45;74.80
36386;BME280;24125;47.482;8.770;2023-03-04T07:53:07;96722.06;;;6.52;75.06
36386;BME280;24125;47.482;8.770;2023-03-04T07:55:40;96720.88;;;6.63;75.23
36386;BME280;24125;47.482;8.770;2023-03-04T07:58:13;96717.28;;;6.72;75.17
36386;BME280;24125;47.482;8.770;2023-03-04T08:00:50;96716.38;;;6.82;74.85
36386;BME280;24125;47.482;8.770;2023-03-04T08:03:24;96716.19;;;6.92;75.55
36386;BME280;24125;47.482;8.770;2023-03-04T08:05:57;96717.63;;;7.03;74.58
36386;BME280;24125;47.482;8.770;2023-03-04T08:08:29;96715.59;;;7.14;74.82
36386;BME280;24125;47.482;8.770;2023-03-04T08:11:03;96717.81;;;7.26;75.27
36386;BME280;24125;47.482;8.770;2023-03-04T08:13:35;96721.41;;;7.35;75.20
36386;BME280;24125;47.482;8.770;2023-03-04T08:16:09;96716.97;;;7.44;74.58
36386;BME280;24125;47.482;8.770;2023-03-04T08:18:45;96711.00;;;7.52;75.25
36386;BME280;24125;47.482;8.770;2023-03-04T08:21:19;96721.16;;;7.64;75.29
36386;BME280;24125;47.482;8.770;2023-03-04T08:23:53;96711.72;;;7.71;75.33
36386;BME280;24125;47.482;8.770;2023-03-04T08:26:27;96709.94;;;7.80;74.78
36386;BME280;24125;47.482;8.770;2023-03-04T08:29:03;96703.94;;;7.88;74.63
36386;BME280;24125;47.482;8.770;2023-03-04T08:31:36;96709.09;;;7.99;75.04
36386;BME280;24125;47.482;8.770;2023-03-04T08:34:11;96701.50;;;8.06;74.66
36386;BME280;24125;47.482;8.770;2023-03-04T08:36:45;96703.47;;;8.14;74.54
36386;BME280;24125;47.482;8.770;2023-03-04T08:39:18;96701.22;;;8.21;74.37
36386;BME280;24125;47.482;8.770;2023-03-04T08:41:51;96708.00;;;8.27;74.00
36386;BME280;24125;47.482;8.770;2023-03-04T08:44:23;96708.69;;;8.32;74.16
36386;BME280;24125;47.482;8.770;2023-03-04T08:46:57;96707.34;;;8.35;73.73
36386;BME280;24125;47.482;8.770;2023-03-04T08:49:31;96712.06;;;8.38;73.56
36386;BME280;24125;47.482;8.770;2023-03-04T08:52:04;96715.97;;;8.41;73.31
36386;BME280;24125;47.482;8.770;2023-03-04T08:54:37;96719.44;;;8.41;73.24
36386;BME280;24125;47.482;8.770;2023-03-04T08:57:09;96706.13;;;8.41;72.61
36386;BME280;24125;47.482;8.770;2023-03-04T08:59:42;96706.91;;;8.42;72.29
36386;BME280;24125;47.482;8.770;2023-03-04T09:02:15;96709.00;;;8.45;72.83
36386;BME280;24125;47.482;8.770;2023-03-04T09:04:49;96707.41;;;8.44;72.64
36386;BME280;24125;47.482;8.770;2023-03-04T09:07:22;96705.25;;;8.46;72.89
36386;BME280;24125;47.482;8.770;2023-03-04T09:09:55;96702.31;;;8.47;72.55
36386;BME280;24125;47.482;8.770;2023-03-04T09:12:28;96702.19;;;8.52;72.75
36386;BME280;24125;47.482;8.770;2023-03-04T09:15:01;96701.59;;;8.55;73.11
36386;BME280;24125;47.482;8.770;2023-03-04T09:17:42;96703.84;;;8.62;73.61
36386;BME280;24125;47.482;8.770;2023-03-04T09:20:16;96696.53;;;8.67;73.81
36386;BME280;24125;47.482;8.770;2023-03-04T09:22:50;96699.88;;;8.73;73.84
36386;BME280;24125;47.482;8.770;2023-03-04T09:25:22;96690.97;;;8.78;73.40
36386;BME280;24125;47.482;8.770;2023-03-04T09:27:55;96697.75;;;8.84;73.36
36386;BME280;24125;47.482;8.770;2023-03-04T09:30:28;96702.19;;;8.88;73.58
36386;BME280;24125;47.482;8.770;2023-03-04T09:33:01;96693.28;;;8.93;72.98
36386;BME280;24125;47.482;8.770;2023-03-04T09:35:35;96688.94;;;8.97;72.88
36386;BME280;24125;47.482;8.770;2023-03-04T09:38:08;96688.03;;;9.01;72.48
36386;BME280;24125;47.482;8.770;2023-03-04T09:40:41;96690.88;;;9.05;72.98
36386;BME280;24125;47.482;8.770;2023-03-04T09:43:16;96694.19;;;9.11;72.84
36386;BME280;24125;47.482;8.770;2023-03-04T09:45:52;96685.63;;;9.14;72.46
36386;BME280;24125;47.482;8.770;2023-03-04T09:48:28;96685.19;;;9.20;72.46
36386;BME280;24125;47.482;8.770;2023-03-04T09:51:06;96686.63;;;9.26;72.90
36386;BME280;24125;47.482;8.770;2023-03-04T09:53:44;96685.72;;;9.31;73.38
36386;BME280;24125;47.482;8.770;2023-03-04T09:56:19;96687.97;;;9.37;73.41
36386;BME280;24125;47.482;8.770;2023-03-04T09:58:54;96672.94;;;9.41;72.80
36386;BME280;24125;47.482;8.770;2023-03-04T10:01:33;96674.38;;;9.48;73.06
36386;BME280;24125;47.482;8.770;2023-03-04T10:04:09;96678.00;;;9.52;72.77
36386;BME280;24125;47.482;8.770;2023-03-04T10:06:45;96674.91;;;9.58;73.23
36386;BME280;24125;47.482;8.770;2023-03-04T10:09:25;96676.34;;;9.64;73.01
36386;BME280;24125;47.482;8.770;2023-03-04T10:12:00;96673.22;;;9.71;73.49
36386;BME280;24125;47.482;8.770;2023-03-04T10:14:35;96674.69;;;9.77;73.22
36386;BME280;24125;47.482;8.770;2023-03-04T10:17:11;96669.69;;;9.84;73.30
36386;BME280;24125;47.482;8.770;2023-03-04T10:19:52;96665.78;;;9.90;74.18
36386;BME280;24125;47.482;8.770;2023-03-04T10:22:31;96666.44;;;9.96;72.43
36386;BME280;24125;47.482;8.770;2023-03-04T10:27:58;96666.34;;;10.09;73.21
36386;BME280;24125;47.482;8.770;2023-03-04T10:30:36;96662.72;;;10.14;73.26
36386;BME280;24125;47.482;8.770;2023-03-04T10:33:11;96664.19;;;10.20;72.35
36386;BME280;24125;47.482;8.770;2023-03-04T10:35:45;96659.50;;;10.26;72.23
36386;BME280;24125;47.482;8.770;2023-03-04T10:38:21;96655.88;;;10.30;72.74
36386;BME280;24125;47.482;8.770;2023-03-04T10:40:55;96655.44;;;10.37;72.16
36386;BME280;24125;47.482;8.770;2023-03-04T10:43:29;96662.50;;;10.41;72.47
36386;BME280;24125;47.482;8.770;2023-03-04T10:46:02;96660.00;;;10.45;71.23
36386;BME280;24125;47.482;8.770;2023-03-04T10:48:35;96664.56;;;10.53;71.51
36386;BME280;24125;47.482;8.770;2023-03-04T10:51:10;96659.38;;;10.56;72.07
36386;BME280;24125;47.482;8.770;2023-03-04T10:53:45;96653.41;;;10.59;71.92
36386;BME280;24125;47.482;8.770;2023-03-04T10:56:32;96654.81;;;10.66;72.79
36386;BME280;24125;47.482;8.770;2023-03-04T10:59:28;96645.09;;;10.70;72.81
36386;BME280;24125;47.482;8.770;2023-03-04T11:02:10;96640.38;;;10.75;73.13
36386;BME280;24125;47.482;8.770;2023-03-04T11:04:49;96639.44;;;10.80;72.39
36386;BME280;24125;47.482;8.770;2023-03-04T11:07:24;96636.63;;;10.85;71.69
36386;BME280;24125;47.482;8.770;2023-03-04T11:10:07;96636.44;;;10.90;72.49
36386;BME280;24125;47.482;8.770;2023-03-04T11:12:40;96624.03;;;10.94;70.96
36386;BME280;24125;47.482;8.770;2023-03-04T11:15:20;96627.31;;;11.00;71.86
36386;BME280;24125;47.482;8.770;2023-03-04T11:17:58;96624.50;;;11.05;71.58
36386;BME280;24125;47.482;8.770;2023-03-04T11:20:33;96624.97;;;11.07;71.33
36386;BME280;24125;47.482;8.770;2023-03-04T11:23:09;96616.00;;;11.11;71.86
36386;BME280;24125;47.482;8.770;2023-03-04T11:25:46;96614.59;;;11.14;72.06
36386;BME280;24125;47.482;8.770;2023-03-04T11:28:21;96616.59;;;11.17;72.81
36386;BME280;24125;47.482;8.770;2023-03-04T11:30:56;96611.41;;;11.20;73.24
36386;BME280;24125;47.482;8.770;2023-03-04T11:33:32;96606.53;;;11.22;72.29
36386;BME280;24125;47.482;8.770;2023-03-04T11:36:12;96599.75;;;11.25;71.82
36386;BME280;24125;47.482;8.770;2023-03-04T11:38:52;96601.03;;;11.27;71.46
36386;BME280;24125;47.482;8.770;2023-03-04T11:41:27;96599.59;;;11.30;70.43
36386;BME280;24125;47.482;8.770;2023-03-04T11:44:02;96599.72;;;11.33;70.91
36386;BME280;24125;47.482;8.770;2023-03-04T11:49:40;96596.44;;;11.37;72.36
36386;BME280;24125;47.482;8.770;2023-03-04T11:52:21;96592.34;;;11.39;72.30
36386;BME280;24125;47.482;8.770;2023-03-04T11:55:02;96591.69;;;11.42;71.17
36386;BME280;24125;47.482;8.770;2023-03-04T11:57:40;96581.94;;;11.46;71.46
36386;BME280;24125;47.482;8.770;2023-03-04T12:00:26;96575.97;;;11.49;71.03
36386;BME280;24125;47.482;8.770;2023-03-04T12:03:10;96578.44;;;11.54;71.83
36386;BME280;24125;47.482;8.770;2023-03-04T12:05:48;96569.78;;;11.57;70.49
36386;BME280;24125;47.482;8.770;2023-03-04T12:08:27;96569.59;;;11.62;71.38
36386;BME280;24125;47.482;8.770;2023-03-04T12:11:05;96574.78;;;11.67;71.45
36386;BME280;24125;47.482;8.770;2023-03-04T12:16:32;96556.03;;;11.76;71.76
36386;BME280;24125;47.482;8.770;2023-03-04T12:19:14;96553.97;;;11.82;72.57
36386;BME280;24125;47.482;8.770;2023-03-04T12:21:52;96557.53;;;11.86;73.12
36386;BME280;24125;47.482;8.770;2023-03-04T12:24:38;96559.25;;;11.90;72.26
36386;BME280;24125;47.482;8.770;2023-03-04T12:27:17;96552.94;;;11.95;71.24
36386;BME280;24125;47.482;8.770;2023-03-04T12:29:55;96542.38;;;11.98;69.72
36386;BME280;24125;47.482;8.770;2023-03-04T12:32:32;96541.72;;;12.01;70.29
36386;BME280;24125;47.482;8.770;2023-03-04T12:35:20;96536.03;;;12.03;68.49
36386;BME280;24125;47.482;8.770;2023-03-04T12:40:46;96532.72;;;12.06;68.98
36386;BME280;24125;47.482;8.770;2023-03-04T12:46:17;96520.91;;;12.07;67.01
36386;BME280;24125;47.482;8.770;2023-03-04T12:48:58;96520.13;;;12.06;68.34
36386;BME280;24125;47.482;8.770;2023-03-04T12:51:35;96517.44;;;12.06;69.45
36386;BME280;24125;47.482;8.770;2023-03-04T12:54:15;96506.41;;;12.08;68.59
36386;BME280;24125;47.482;8.770;2023-03-04T12:56:50;96505.63;;;12.07;69.80
36386;BME280;24125;47.482;8.770;2023-03-04T12:59:25;96501.84;;;12.08;71.77
36386;BME280;24125;47.482;8.770;2023-03-04T13:02:03;96497.72;;;12.11;70.89
36386;BME280;24125;47.482;8.770;2023-03-04T13:04:45;96496.59;;;12.12;71.50
36386;BME280;24125;47.482;8.770;2023-03-04T13:07:26;96496.75;;;12.16;70.62
36386;BME280;24125;47.482;8.770;2023-03-04T13:10:03;96487.16;;;12.15;69.47
36386;BME280;24125;47.482;8.770;2023-03-04T13:12:45;96486.84;;;12.16;70.02
36386;BME280;24125;47.482;8.770;2023-03-04T13:15:34;96486.50;;;12.18;69.66
36386;BME280;24125;47.482;8.770;2023-03-04T13:18:29;96489.19;;;12.18;69.85
36386;BME280;24125;47.482;8.770;2023-03-04T13:21:07;96477.69;;;12.17;69.24
36386;BME280;24125;47.482;8.770;2023-03-04T13:23:47;96478.47;;;12.18;71.39
36386;BME280;24125;47.482;8.770;2023-03-04T13:26:27;96473.13;;;12.18;67.91
36386;BME280;24125;47.482;8.770;2023-03-04T13:31:59;96470.88;;;12.20;69.39
36386;BME280;24125;47.482;8.770;2023-03-04T13:34:43;96468.19;;;12.20;67.30
36386;BME280;24125;47.482;8.770;2023-03-04T13:37:27;96468.19;;;12.20;68.32
36386;BME280;24125;47.482;8.770;2023-03-04T13:45:57;96454.38;;;12.18;68.27
36386;BME280;24125;47.482;8.770;2023-03-04T13:48:30;96449.69;;;12.15;63.62
36386;BME280;24125;47.482;8.770;2023-03-04T13:51:11;96457.38;;;12.16;69.91
36386;BME280;24125;47.482;8.770;2023-03-04T13:54:10;96452.03;;;12.16;70.54
36386;BME280;24125;47.482;8.770;2023-03-04T13:56:44;96454.72;;;12.16;69.09
36386;BME280;24125;47.482;8.770;2023-03-04T13:59:23;96450.59;;;12.19;69.34
36386;BME280;24125;47.482;8.770;2023-03-04T14:01:59;96446.69;;;12.16;68.46
36386;BME280;24125;47.482;8.770;2023-03-04T14:04:33;96446.34;;;12.18;70.79
36386;BME280;24125;47.482;8.770;2023-03-04T14:07:17;96441.78;;;12.18;71.98
36386;BME280;24125;47.482;8.770;2023-03-04T14:12:43;96443.38;;;12.19;70.04
36386;BME280;24125;47.482;8.770;2023-03-04T14:15:19;96444.47;;;12.18;70.38